sensor_id;sensor_type;location;lat;lon;timestamp;P1;durP1;ratioP1;P2;durP2;ratioP2
3004;SDS011;1512;51.486;6.610;2023-05-20T00:00:22;5.07;;;3.73;;
3004;SDS011;1512;51.486;6.610;2023-05-20T00:04:32;4.63;;;3.17;;
3004;SDS011;1512;51.486;6.610;2023-05-20T00:08:41;4.70;;;3.60;;
3004;SDS011;1512;51.486;6.610;2023-05-20T00:12:50;4.13;;;3.70;;
3004;SDS011;1512;51.486;6.610;2023-05-20T00:17:01;3.60;;;2.90;;
3004;SDS011;1512;51.486;6.610;2023-05-20T00:21:10;9.03;;;3.43;;
3004;SDS011;1512;51.486;6.610;2023-05-20T00:25:19;4.07;;;3.40;;
3004;SDS011;1512;51.486;6.610;2023-05-20T00:29:27;3.73;;;3.33;;
3004;SDS011;1512;51.486;6.610;2023-05-20T00:33:38;10.20;;;3.90;;
3004;SDS011;1512;51.486;6.610;2023-05-20T00:37:47;3.83;;;3.27;;
3004;SDS011;1512;51.486;6.610;2023-05-20T00:41:56;3.47;;;3.17;;
3004;SDS011;1512;51.486;6.610;2023-05-20T00:46:14;3.20;;;2.93;;
3004;SDS011;1512;51.486;6.610;2023-05-20T00:50:24;3.50;;;3.20;;
3004;SDS011;1512;51.486;6.610;2023-05-20T00:54:32;7.00;;;3.53;;
3004;SDS011;1512;51.486;6.610;2023-05-20T00:58:41;4.93;;;3.63;;
3004;SDS011;1512;51.486;6.610;2023-05-20T01:02:50;3.70;;;3.40;;
3004;SDS011;1512;51.486;6.610;2023-05-20T01:07:01;3.93;;;3.30;;
3004;SDS011;1512;51.486;6.610;2023-05-20T01:11:24;3.50;;;3.20;;
3004;SDS011;1512;51.486;6.610;2023-05-20T01:15:35;4.13;;;3.53;;
3004;SDS011;1512;51.486;6.610;2023-05-20T01:19:47;3.80;;;2.80;;
3004;SDS011;1512;51.486;6.610;2023-05-20T01:23:59;4.77;;;3.30;;
3004;SDS011;1512;51.486;6.610;2023-05-20T01:28:10;3.80;;;3.40;;
3004;SDS011;1512;51.486;6.610;2023-05-20T01:32:40;5.30;;;3.40;;
3004;SDS011;1512;51.486;6.610;2023-05-20T01:36:53;4.50;;;3.60;;
3004;SDS011;1512;51.486;6.610;2023-05-20T01:41:03;4.03;;;3.73;;
3004;SDS011;1512;51.486;6.610;2023-05-20T01:45:13;3.20;;;2.90;;
3004;SDS011;1512;51.486;6.610;2023-05-20T01:49:21;7.97;;;3.70;;
3004;SDS011;1512;51.486;6.610;2023-05-20T01:53:30;5.17;;;3.20;;
3004;SDS011;1512;51.486;6.610;2023-05-20T01:57:39;5.30;;;3.47;;
3004;SDS011;1512;51.486;6.610;2023-05-20T02:01:48;4.60;;;3.93;;
3004;SDS011;1512;51.486;6.610;2023-05-20T02:05:56;3.83;;;3.47;;
3004;SDS011;1512;51.486;6.610;2023-05-20T02:10:06;6.50;;;4.10;;
3004;SDS011;1512;51.486;6.610;2023-05-20T02:14:15;6.10;;;3.80;;
3004;SDS011;1512;51.486;6.610;2023-05-20T02:18:25;3.07;;;2.77;;
3004;SDS011;1512;51.486;6.610;2023-05-20T02:27:02;5.60;;;3.60;;
3004;SDS011;1512;51.486;6.610;2023-05-20T02:35:40;3.53;;;3.23;;
3004;SDS011;1512;51.486;6.610;2023-05-20T02:39:49;4.63;;;3.73;;
3004;SDS011;1512;51.486;6.610;2023-05-20T02:43:58;3.93;;;3.53;;
3004;SDS011;1512;51.486;6.610;2023-05-20T02:48:06;3.60;;;3.30;;
3004;SDS011;1512;51.486;6.610;2023-05-20T02:52:15;5.53;;;4.20;;
3004;SDS011;1512;51.486;6.610;2023-05-20T02:56:24;3.70;;;3.40;;
3004;SDS011;1512;51.486;6.610;2023-05-20T03:00:32;5.87;;;3.83;;
3004;SDS011;1512;51.486;6.610;2023-05-20T03:04:43;10.20;;;3.80;;
3004;SDS011;1512;51.486;6.610;2023-05-20T03:08:53;4.50;;;3.47;;
3004;SDS011;1512;51.486;6.610;2023-05-20T03:13:03;5.37;;;3.50;;
3004;SDS011;1512;51.486;6.610;2023-05-20T03:17:15;4.20;;;3.63;;
3004;SDS011;1512;51.486;6.610;2023-05-20T03:21:23;4.03;;;3.33;;
3004;SDS011;1512;51.486;6.610;2023-05-20T03:25:32;3.67;;;2.93;;
3004;SDS011;1512;51.486;6.610;2023-05-20T03:29:44;3.70;;;3.17;;
3004;SDS011;1512;51.486;6.610;2023-05-20T03:33:54;4.43;;;4.00;;
3004;SDS011;1512;51.486;6.610;2023-05-20T03:38:03;3.80;;;3.50;;
3004;SDS011;1512;51.486;6.610;2023-05-20T03:42:12;4.87;;;3.87;;
3004;SDS011;1512;51.486;6.610;2023-05-20T03:46:21;4.00;;;3.47;;
3004;SDS011;1512;51.486;6.610;2023-05-20T03:50:29;5.37;;;4.10;;
3004;SDS011;1512;51.486;6.610;2023-05-20T03:54:38;4.00;;;3.60;;
3004;SDS011;1512;51.486;6.610;2023-05-20T03:58:47;5.77;;;4.20;;
3004;SDS011;1512;51.486;6.610;2023-05-20T04:02:56;5.70;;;3.67;;
3004;SDS011;1512;51.486;6.610;2023-05-20T04:07:05;4.63;;;3.77;;
3004;SDS011;1512;51.486;6.610;2023-05-20T04:11:14;9.03;;;3.57;;
3004;SDS011;1512;51.486;6.610;2023-05-20T04:15:23;5.60;;;3.50;;
3004;SDS011;1512;51.486;6.610;2023-05-20T04:19:32;5.23;;;4.40;;
3004;SDS011;1512;51.486;6.610;2023-05-20T04:23:40;6.10;;;3.80;;
3004;SDS011;1512;51.486;6.610;2023-05-20T04:27:49;3.67;;;3.30;;
3004;SDS011;1512;51.486;6.610;2023-05-20T04:32:00;8.27;;;4.37;;
3004;SDS011;1512;51.486;6.610;2023-05-20T04:36:10;4.20;;;3.40;;
3004;SDS011;1512;51.486;6.610;2023-05-20T04:40:20;3.93;;;3.53;;
3004;SDS011;1512;51.486;6.610;2023-05-20T04:44:29;4.37;;;3.60;;
3004;SDS011;1512;51.486;6.610;2023-05-20T04:48:38;3.98;;;3.50;;
3004;SDS011;1512;51.486;6.610;2023-05-20T04:52:46;4.13;;;3.77;;
3004;SDS011;1512;51.486;6.610;2023-05-20T04:56:56;4.00;;;3.67;;
3004;SDS011;1512;51.486;6.610;2023-05-20T05:01:05;3.80;;;3.50;;
3004;SDS011;1512;51.486;6.610;2023-05-20T05:05:14;4.30;;;3.67;;
3004;SDS011;1512;51.486;6.610;2023-05-20T05:09:23;4.77;;;4.27;;
3004;SDS011;1512;51.486;6.610;2023-05-20T05:13:31;4.63;;;3.90;;
3004;SDS011;1512;51.486;6.610;2023-05-20T05:17:40;6.40;;;4.50;;
3004;SDS011;1512;51.486;6.610;2023-05-20T05:21:49;3.50;;;3.20;;
3004;SDS011;1512;51.486;6.610;2023-05-20T05:25:58;5.10;;;4.00;;
3004;SDS011;1512;51.486;6.610;2023-05-20T05:30:07;5.17;;;3.77;;
3004;SDS011;1512;51.486;6.610;2023-05-20T05:34:16;3.87;;;3.43;;
3004;SDS011;1512;51.486;6.610;2023-05-20T05:38:24;5.10;;;3.73;;
3004;SDS011;1512;51.486;6.610;2023-05-20T05:42:33;5.50;;;3.80;;
3004;SDS011;1512;51.486;6.610;2023-05-20T05:46:42;4.53;;;3.97;;
3004;SDS011;1512;51.486;6.610;2023-05-20T05:50:51;4.90;;;4.40;;
3004;SDS011;1512;51.486;6.610;2023-05-20T05:55:00;7.20;;;3.93;;
3004;SDS011;1512;51.486;6.610;2023-05-20T05:59:09;5.63;;;4.63;;
3004;SDS011;1512;51.486;6.610;2023-05-20T06:03:18;3.90;;;3.60;;
3004;SDS011;1512;51.486;6.610;2023-05-20T06:07:27;6.97;;;4.60;;
3004;SDS011;1512;51.486;6.610;2023-05-20T06:11:35;5.40;;;3.97;;
3004;SDS011;1512;51.486;6.610;2023-05-20T06:15:44;5.13;;;4.60;;
3004;SDS011;1512;51.486;6.610;2023-05-20T06:19:53;7.10;;;4.63;;
3004;SDS011;1512;51.486;6.610;2023-05-20T06:24:01;5.03;;;3.67;;
3004;SDS011;1512;51.486;6.610;2023-05-20T06:28:10;5.43;;;4.23;;
3004;SDS011;1512;51.486;6.610;2023-05-20T06:32:19;4.17;;;3.50;;
3004;SDS011;1512;51.486;6.610;2023-05-20T06:36:27;4.40;;;3.97;;
3004;SDS011;1512;51.486;6.610;2023-05-20T06:40:38;4.17;;;3.77;;
3004;SDS011;1512;51.486;6.610;2023-05-20T06:44:47;9.03;;;5.10;;
3004;SDS011;1512;51.486;6.610;2023-05-20T06:48:55;5.00;;;4.50;;
3004;SDS011;1512;51.486;6.610;2023-05-20T06:53:04;5.20;;;4.03;;
3004;SDS011;1512;51.486;6.610;2023-05-20T06:57:13;4.80;;;3.55;;
3004;SDS011;1512;51.486;6.610;2023-05-20T07:01:22;4.73;;;3.93;;
3004;SDS011;1512;51.486;6.610;2023-05-20T07:05:31;4.17;;;3.77;;
3004;SDS011;1512;51.486;6.610;2023-05-20T07:10:04;5.97;;;4.60;;
3004;SDS011;1512;51.486;6.610;2023-05-20T07:14:13;6.03;;;3.97;;
3004;SDS011;1512;51.486;6.610;2023-05-20T07:18:22;6.00;;;4.30;;
3004;SDS011;1512;51.486;6.610;2023-05-20T07:22:31;4.33;;;3.93;;
3004;SDS011;1512;51.486;6.610;2023-05-20T07:26:40;4.20;;;3.77;;
3004;SDS011;1512;51.486;6.610;2023-05-20T07:30:48;3.97;;;3.67;;
3004;SDS011;1512;51.486;6.610;2023-05-20T07:34:59;4.10;;;3.70;;
3004;SDS011;1512;51.486;6.610;2023-05-20T07:39:07;4.43;;;4.10;;
3004;SDS011;1512;51.486;6.610;2023-05-20T07:43:18;5.60;;;4.20;;
3004;SDS011;1512;51.486;6.610;2023-05-20T07:47:27;4.53;;;3.80;;
3004;SDS011;1512;51.486;6.610;2023-05-20T07:51:35;4.40;;;3.97;;
3004;SDS011;1512;51.486;6.610;2023-05-20T07:55:44;5.33;;;4.30;;
3004;SDS011;1512;51.486;6.610;2023-05-20T07:59:53;4.67;;;4.13;;
3004;SDS011;1512;51.486;6.610;2023-05-20T08:04:02;6.43;;;4.03;;
3004;SDS011;1512;51.486;6.610;2023-05-20T08:08:11;4.07;;;3.60;;
3004;SDS011;1512;51.486;6.610;2023-05-20T08:12:19;4.70;;;4.07;;
3004;SDS011;1512;51.486;6.610;2023-05-20T08:16:28;4.80;;;4.00;;
3004;SDS011;1512;51.486;6.610;2023-05-20T08:20:37;8.27;;;5.40;;
3004;SDS011;1512;51.486;6.610;2023-05-20T08:24:46;4.80;;;3.97;;
3004;SDS011;1512;51.486;6.610;2023-05-20T08:28:54;6.07;;;4.50;;
3004;SDS011;1512;51.486;6.610;2023-05-20T08:33:03;6.03;;;4.87;;
3004;SDS011;1512;51.486;6.610;2023-05-20T08:37:12;4.50;;;3.97;;
3004;SDS011;1512;51.486;6.610;2023-05-20T08:41:20;5.90;;;4.40;;
3004;SDS011;1512;51.486;6.610;2023-05-20T08:45:31;5.50;;;4.50;;
3004;SDS011;1512;51.486;6.610;2023-05-20T08:49:41;5.20;;;4.53;;
3004;SDS011;1512;51.486;6.610;2023-05-20T08:53:49;8.30;;;5.77;;
3004;SDS011;1512;51.486;6.610;2023-05-20T08:57:58;7.20;;;5.30;;
3004;SDS011;1512;51.486;6.610;2023-05-20T09:02:07;5.53;;;5.03;;
3004;SDS011;1512;51.486;6.610;2023-05-20T09:06:17;5.37;;;4.87;;
3004;SDS011;1512;51.486;6.610;2023-05-20T09:10:26;6.77;;;4.60;;
3004;SDS011;1512;51.486;6.610;2023-05-20T09:14:39;5.53;;;4.97;;
3004;SDS011;1512;51.486;6.610;2023-05-20T09:18:49;5.30;;;4.80;;
3004;SDS011;1512;51.486;6.610;2023-05-20T09:23:00;6.03;;;5.30;;
3004;SDS011;1512;51.486;6.610;2023-05-20T09:27:10;5.47;;;4.97;;
3004;SDS011;1512;51.486;6.610;2023-05-20T09:31:19;5.90;;;4.97;;
3004;SDS011;1512;51.486;6.610;2023-05-20T09:35:28;5.10;;;4.60;;
3004;SDS011;1512;51.486;6.610;2023-05-20T09:39:54;5.33;;;4.67;;
3004;SDS011;1512;51.486;6.610;2023-05-20T09:44:02;5.20;;;4.70;;
3004;SDS011;1512;51.486;6.610;2023-05-20T09:48:13;7.63;;;5.40;;
3004;SDS011;1512;51.486;6.610;2023-05-20T09:52:22;9.50;;;5.50;;
3004;SDS011;1512;51.486;6.610;2023-05-20T09:56:31;5.50;;;4.80;;
3004;SDS011;1512;51.486;6.610;2023-05-20T10:00:42;5.40;;;4.90;;
3004;SDS011;1512;51.486;6.610;2023-05-20T10:04:52;6.07;;;5.03;;
3004;SDS011;1512;51.486;6.610;2023-05-20T10:09:27;8.13;;;5.07;;
3004;SDS011;1512;51.486;6.610;2023-05-20T10:22:24;6.50;;;5.37;;
3004;SDS011;1512;51.486;6.610;2023-05-20T10:26:33;6.40;;;5.20;;
3004;SDS011;1512;51.486;6.610;2023-05-20T10:30:48;7.10;;;5.50;;
3004;SDS011;1512;51.486;6.610;2023-05-20T10:34:58;9.20;;;5.10;;
3004;SDS011;1512;51.486;6.610;2023-05-20T10:39:14;7.07;;;5.50;;
3004;SDS011;1512;51.486;6.610;2023-05-20T10:43:26;6.40;;;5.03;;
3004;SDS011;1512;51.486;6.610;2023-05-20T10:47:35;6.83;;;5.20;;
3004;SDS011;1512;51.486;6.610;2023-05-20T10:51:46;6.30;;;5.53;;
3004;SDS011;1512;51.486;6.610;2023-05-20T10:55:54;6.10;;;5.43;;
3004;SDS011;1512;51.486;6.610;2023-05-20T11:00:04;7.43;;;5.73;;
3004;SDS011;1512;51.486;6.610;2023-05-20T11:04:15;7.00;;;4.83;;
3004;SDS011;1512;51.486;6.610;2023-05-20T11:08:28;5.77;;;5.20;;
3004;SDS011;1512;51.486;6.610;2023-05-20T11:12:40;5.93;;;4.87;;
3004;SDS011;1512;51.486;6.610;2023-05-20T11:16:52;5.63;;;4.23;;
3004;SDS011;1512;51.486;6.610;2023-05-20T11:21:06;6.60;;;4.70;;
3004;SDS011;1512;51.486;6.610;2023-05-20T11:25:15;4.90;;;4.17;;
3004;SDS011;1512;51.486;6.610;2023-05-20T11:29:25;4.60;;;3.83;;
3004;SDS011;1512;51.486;6.610;2023-05-20T11:33:39;5.07;;;4.63;;
3004;SDS011;1512;51.486;6.610;2023-05-20T11:37:52;5.03;;;4.47;;
3004;SDS011;1512;51.486;6.610;2023-05-20T11:42:04;5.00;;;4.50;;
3004;SDS011;1512;51.486;6.610;2023-05-20T11:46:13;6.43;;;4.90;;
3004;SDS011;1512;51.486;6.610;2023-05-20T11:50:22;8.23;;;5.40;;
3004;SDS011;1512;51.486;6.610;2023-05-20T11:54:30;4.93;;;4.43;;
3004;SDS011;1512;51.486;6.610;2023-05-20T11:58:42;5.37;;;4.83;;
3004;SDS011;1512;51.486;6.610;2023-05-20T12:02:51;5.17;;;4.60;;
3004;SDS011;1512;51.486;6.610;2023-05-20T12:07:01;8.80;;;5.00;;
3004;SDS011;1512;51.486;6.610;2023-05-20T12:11:10;5.73;;;4.90;;
3004;SDS011;1512;51.486;6.610;2023-05-20T12:15:18;5.80;;;4.63;;
3004;SDS011;1512;51.486;6.610;2023-05-20T12:19:27;5.70;;;5.20;;
3004;SDS011;1512;51.486;6.610;2023-05-20T12:23:36;6.87;;;4.87;;
3004;SDS011;1512;51.486;6.610;2023-05-20T12:27:45;5.20;;;4.70;;
3004;SDS011;1512;51.486;6.610;2023-05-20T12:31:55;6.83;;;5.13;;
3004;SDS011;1512;51.486;6.610;2023-05-20T12:36:04;4.87;;;4.33;;
3004;SDS011;1512;51.486;6.610;2023-05-20T12:40:13;8.43;;;5.67;;
3004;SDS011;1512;51.486;6.610;2023-05-20T12:44:21;4.17;;;3.77;;
3004;SDS011;1512;51.486;6.610;2023-05-20T12:48:30;5.50;;;5.00;;
3004;SDS011;1512;51.486;6.610;2023-05-20T12:52:41;5.40;;;4.73;;
3004;SDS011;1512;51.486;6.610;2023-05-20T12:56:53;5.33;;;4.83;;
3004;SDS011;1512;51.486;6.610;2023-05-20T13:01:02;4.90;;;4.50;;
3004;SDS011;1512;51.486;6.610;2023-05-20T13:05:11;6.13;;;5.53;;
3004;SDS011;1512;51.486;6.610;2023-05-20T13:09:20;4.20;;;3.80;;
3004;SDS011;1512;51.486;6.610;2023-05-20T13:13:29;4.97;;;4.47;;
3004;SDS011;1512;51.486;6.610;2023-05-20T13:17:38;4.70;;;4.10;;
3004;SDS011;1512;51.486;6.610;2023-05-20T13:21:49;4.70;;;4.30;;
3004;SDS011;1512;51.486;6.610;2023-05-20T13:25:59;4.70;;;4.30;;
3004;SDS011;1512;51.486;6.610;2023-05-20T13:30:09;5.20;;;4.20;;
3004;SDS011;1512;51.486;6.610;2023-05-20T13:34:19;4.87;;;4.10;;
3004;SDS011;1512;51.486;6.610;2023-05-20T13:38:27;5.13;;;4.50;;
3004;SDS011;1512;51.486;6.610;2023-05-20T13:42:36;4.40;;;4.00;;
3004;SDS011;1512;51.486;6.610;2023-05-20T13:46:45;4.10;;;3.70;;
3004;SDS011;1512;51.486;6.610;2023-05-20T13:50:54;5.27;;;4.40;;
3004;SDS011;1512;51.486;6.610;2023-05-20T13:55:02;4.77;;;4.37;;
3004;SDS011;1512;51.486;6.610;2023-05-20T13:59:12;4.93;;;4.47;;
3004;SDS011;1512;51.486;6.610;2023-05-20T14:03:21;5.13;;;3.77;;
3004;SDS011;1512;51.486;6.610;2023-05-20T14:07:30;4.07;;;3.67;;
3004;SDS011;1512;51.486;6.610;2023-05-20T14:16:06;4.80;;;3.70;;
3004;SDS011;1512;51.486;6.610;2023-05-20T14:20:15;3.63;;;3.33;;
3004;SDS011;1512;51.486;6.610;2023-05-20T14:24:24;3.70;;;3.30;;
3004;SDS011;1512;51.486;6.610;2023-05-20T14:28:33;7.80;;;4.33;;
3004;SDS011;1512;51.486;6.610;2023-05-20T14:32:42;4.37;;;3.97;;
3004;SDS011;1512;51.486;6.610;2023-05-20T14:36:50;3.60;;;3.10;;
3004;SDS011;1512;51.486;6.610;2023-05-20T14:40:59;4.30;;;3.33;;
3004;SDS011;1512;51.486;6.610;2023-05-20T14:45:08;3.60;;;3.30;;
3004;SDS011;1512;51.486;6.610;2023-05-20T14:49:17;4.70;;;3.50;;
3004;SDS011;1512;51.486;6.610;2023-05-20T14:53:26;3.87;;;3.40;;
3004;SDS011;1512;51.486;6.610;2023-05-20T14:57:35;5.37;;;3.87;;
3004;SDS011;1512;51.486;6.610;2023-05-20T15:01:43;3.57;;;3.10;;
3004;SDS011;1512;51.486;6.610;2023-05-20T15:05:52;4.30;;;3.30;;
3004;SDS011;1512;51.486;6.610;2023-05-20T15:10:01;5.03;;;3.50;;
3004;SDS011;1512;51.486;6.610;2023-05-20T15:14:10;3.87;;;3.47;;
3004;SDS011;1512;51.486;6.610;2023-05-20T15:18:19;3.67;;;3.37;;
3004;SDS011;1512;51.486;6.610;2023-05-20T15:22:28;6.10;;;3.47;;
3004;SDS011;1512;51.486;6.610;2023-05-20T15:26:37;3.80;;;3.27;;
3004;SDS011;1512;51.486;6.610;2023-05-20T15:30:50;4.00;;;3.60;;
3004;SDS011;1512;51.486;6.610;2023-05-20T15:34:58;3.20;;;2.90;;
3004;SDS011;1512;51.486;6.610;2023-05-20T15:39:08;3.87;;;3.47;;
3004;SDS011;1512;51.486;6.610;2023-05-20T15:43:18;3.70;;;3.30;;
3004;SDS011;1512;51.486;6.610;2023-05-20T15:47:27;4.17;;;3.77;;
3004;SDS011;1512;51.486;6.610;2023-05-20T15:51:36;4.00;;;3.47;;
3004;SDS011;1512;51.486;6.610;2023-05-20T15:55:49;3.53;;;3.20;;
3004;SDS011;1512;51.486;6.610;2023-05-20T15:59:58;4.40;;;3.93;;
3004;SDS011;1512;51.486;6.610;2023-05-20T16:04:07;3.40;;;3.10;;
3004;SDS011;1512;51.486;6.610;2023-05-20T16:08:16;3.93;;;3.53;;
3004;SDS011;1512;51.486;6.610;2023-05-20T16:12:26;4.40;;;4.00;;
3004;SDS011;1512;51.486;6.610;2023-05-20T16:16:35;3.67;;;3.33;;
3004;SDS011;1512;51.486;6.610;2023-05-20T16:25:13;5.30;;;3.97;;
3004;SDS011;1512;51.486;6.610;2023-05-20T16:29:22;4.17;;;3.87;;
3004;SDS011;1512;51.486;6.610;2023-05-20T16:33:31;4.60;;;4.17;;
3004;SDS011;1512;51.486;6.610;2023-05-20T16:37:39;4.97;;;4.50;;
3004;SDS011;1512;51.486;6.610;2023-05-20T16:41:48;4.20;;;3.40;;
3004;SDS011;1512;51.486;6.610;2023-05-20T16:45:57;4.80;;;4.03;;
3004;SDS011;1512;51.486;6.610;2023-05-20T16:50:07;4.67;;;3.90;;
3004;SDS011;1512;51.486;6.610;2023-05-20T16:54:16;4.73;;;3.60;;
3004;SDS011;1512;51.486;6.610;2023-05-20T16:58:25;4.23;;;3.83;;
3004;SDS011;1512;51.486;6.610;2023-05-20T17:02:34;5.10;;;4.23;;
3004;SDS011;1512;51.486;6.610;2023-05-20T17:06:42;4.20;;;3.80;;
3004;SDS011;1512;51.486;6.610;2023-05-20T17:10:51;4.63;;;3.80;;
3004;SDS011;1512;51.486;6.610;2023-05-20T17:15:00;4.37;;;3.70;;
3004;SDS011;1512;51.486;6.610;2023-05-20T17:19:09;4.60;;;3.90;;
3004;SDS011;1512;51.486;6.610;2023-05-20T17:23:18;5.23;;;4.07;;
3004;SDS011;1512;51.486;6.610;2023-05-20T17:27:27;6.73;;;3.30;;
3004;SDS011;1512;51.486;6.610;2023-05-20T17:31:36;4.23;;;3.83;;
3004;SDS011;1512;51.486;6.610;2023-05-20T17:35:44;5.00;;;3.50;;
3004;SDS011;1512;51.486;6.610;2023-05-20T17:39:53;4.33;;;3.90;;
3004;SDS011;1512;51.486;6.610;2023-05-20T17:44:02;4.00;;;3.60;;
3004;SDS011;1512;51.486;6.610;2023-05-20T17:48:11;4.57;;;3.77;;
3004;SDS011;1512;51.486;6.610;2023-05-20T17:52:20;4.60;;;4.20;;
3004;SDS011;1512;51.486;6.610;2023-05-20T17:56:28;8.90;;;6.03;;
3004;SDS011;1512;51.486;6.610;2023-05-20T18:00:37;4.77;;;4.27;;
3004;SDS011;1512;51.486;6.610;2023-05-20T18:04:48;7.87;;;7.07;;
3004;SDS011;1512;51.486;6.610;2023-05-20T18:08:57;5.10;;;4.60;;
3004;SDS011;1512;51.486;6.610;2023-05-20T18:13:06;5.40;;;4.90;;
3004;SDS011;1512;51.486;6.610;2023-05-20T18:17:14;4.40;;;4.00;;
3004;SDS011;1512;51.486;6.610;2023-05-20T18:21:23;4.90;;;4.50;;
3004;SDS011;1512;51.486;6.610;2023-05-20T18:25:32;4.97;;;4.47;;
3004;SDS011;1512;51.486;6.610;2023-05-20T18:29:41;7.47;;;6.00;;
3004;SDS011;1512;51.486;6.610;2023-05-20T18:33:50;6.07;;;5.47;;
3004;SDS011;1512;51.486;6.610;2023-05-20T18:37:59;4.40;;;4.00;;
3004;SDS011;1512;51.486;6.610;2023-05-20T18:42:08;4.47;;;4.07;;
3004;SDS011;1512;51.486;6.610;2023-05-20T18:46:16;4.57;;;4.17;;
3004;SDS011;1512;51.486;6.610;2023-05-20T18:50:25;5.27;;;4.77;;
3004;SDS011;1512;51.486;6.610;2023-05-20T18:54:34;5.43;;;4.93;;
3004;SDS011;1512;51.486;6.610;2023-05-20T18:58:43;5.27;;;4.00;;
3004;SDS011;1512;51.486;6.610;2023-05-20T19:02:52;4.50;;;4.10;;
3004;SDS011;1512;51.486;6.610;2023-05-20T19:07:02;8.17;;;5.20;;
3004;SDS011;1512;51.486;6.610;2023-05-20T19:11:11;6.43;;;5.83;;
3004;SDS011;1512;51.486;6.610;2023-05-20T19:15:19;5.17;;;4.67;;
3004;SDS011;1512;51.486;6.610;2023-05-20T19:19:28;4.70;;;4.10;;
3004;SDS011;1512;51.486;6.610;2023-05-20T19:23:37;4.60;;;4.10;;
3004;SDS011;1512;51.486;6.610;2023-05-20T19:27:46;6.20;;;5.17;;
3004;SDS011;1512;51.486;6.610;2023-05-20T19:31:55;5.57;;;5.07;;
3004;SDS011;1512;51.486;6.610;2023-05-20T19:36:04;5.70;;;5.20;;
3004;SDS011;1512;51.486;6.610;2023-05-20T19:40:13;5.63;;;5.03;;
3004;SDS011;1512;51.486;6.610;2023-05-20T19:44:22;5.77;;;4.73;;
3004;SDS011;1512;51.486;6.610;2023-05-20T19:48:31;5.13;;;4.63;;
3004;SDS011;1512;51.486;6.610;2023-05-20T19:52:40;5.70;;;5.13;;
3004;SDS011;1512;51.486;6.610;2023-05-20T19:56:49;7.03;;;5.13;;
3004;SDS011;1512;51.486;6.610;2023-05-20T20:00:58;4.77;;;4.37;;
3004;SDS011;1512;51.486;6.610;2023-05-20T20:05:06;5.50;;;4.90;;
3004;SDS011;1512;51.486;6.610;2023-05-20T20:09:16;9.73;;;4.70;;
3004;SDS011;1512;51.486;6.610;2023-05-20T20:13:24;9.90;;;5.30;;
3004;SDS011;1512;51.486;6.610;2023-05-20T20:17:33;7.07;;;5.60;;
3004;SDS011;1512;51.486;6.610;2023-05-20T20:21:43;5.93;;;5.00;;
3004;SDS011;1512;51.486;6.610;2023-05-20T20:25:52;7.30;;;6.00;;
3004;SDS011;1512;51.486;6.610;2023-05-20T20:30:02;7.10;;;5.90;;
3004;SDS011;1512;51.486;6.610;2023-05-20T20:34:12;6.27;;;5.17;;
3004;SDS011;1512;51.486;6.610;2023-05-20T20:38:21;9.57;;;5.50;;
3004;SDS011;1512;51.486;6.610;2023-05-20T20:42:30;6.33;;;5.70;;
3004;SDS011;1512;51.486;6.610;2023-05-20T20:46:39;7.30;;;6.60;;
3004;SDS011;1512;51.486;6.610;2023-05-20T20:50:49;6.40;;;5.37;;
3004;SDS011;1512;51.486;6.610;2023-05-20T20:54:58;6.73;;;5.70;;
3004;SDS011;1512;51.486;6.610;2023-05-20T20:59:07;8.60;;;6.00;;
3004;SDS011;1512;51.486;6.610;2023-05-20T21:07:46;6.10;;;5.50;;
3004;SDS011;1512;51.486;6.610;2023-05-20T21:11:56;6.20;;;5.30;;
3004;SDS011;1512;51.486;6.610;2023-05-20T21:16:06;5.40;;;4.77;;
3004;SDS011;1512;51.486;6.610;2023-05-20T21:20:16;7.03;;;6.30;;
3004;SDS011;1512;51.486;6.610;2023-05-20T21:24:28;6.27;;;5.27;;
3004;SDS011;1512;51.486;6.610;2023-05-20T21:28:36;7.27;;;6.50;;
3004;SDS011;1512;51.486;6.610;2023-05-20T21:32:45;7.90;;;6.73;;
3004;SDS011;1512;51.486;6.610;2023-05-20T21:41:22;9.27;;;6.97;;
3004;SDS011;1512;51.486;6.610;2023-05-20T21:45:30;7.93;;;5.80;;
3004;SDS011;1512;51.486;6.610;2023-05-20T21:49:39;6.87;;;6.17;;
3004;SDS011;1512;51.486;6.610;2023-05-20T21:53:48;10.33;;;7.07;;
3004;SDS011;1512;51.486;6.610;2023-05-20T21:57:57;8.47;;;7.40;;
3004;SDS011;1512;51.486;6.610;2023-05-20T22:02:05;9.50;;;7.20;;
3004;SDS011;1512;51.486;6.610;2023-05-20T22:06:14;8.73;;;6.33;;
3004;SDS011;1512;51.486;6.610;2023-05-20T22:10:23;8.30;;;6.80;;
3004;SDS011;1512;51.486;6.610;2023-05-20T22:14:32;8.33;;;6.57;;
3004;SDS011;1512;51.486;6.610;2023-05-20T22:18:41;10.00;;;6.73;;
3004;SDS011;1512;51.486;6.610;2023-05-20T22:22:50;8.20;;;6.57;;
3004;SDS011;1512;51.486;6.610;2023-05-20T22:26:59;10.87;;;7.07;;
3004;SDS011;1512;51.486;6.610;2023-05-20T22:31:09;6.70;;;5.93;;
3004;SDS011;1512;51.486;6.610;2023-05-20T22:35:18;7.57;;;6.80;;
3004;SDS011;1512;51.486;6.610;2023-05-20T22:39:28;8.77;;;6.97;;
3004;SDS011;1512;51.486;6.610;2023-05-20T22:43:36;10.57;;;7.27;;
3004;SDS011;1512;51.486;6.610;2023-05-20T22:47:45;11.80;;;7.40;;
3004;SDS011;1512;51.486;6.610;2023-05-20T22:51:54;9.00;;;6.67;;
3004;SDS011;1512;51.486;6.610;2023-05-20T22:56:04;11.97;;;6.83;;
3004;SDS011;1512;51.486;6.610;2023-05-20T23:00:14;8.00;;;6.40;;
3004;SDS011;1512;51.486;6.610;2023-05-20T23:04:24;7.93;;;7.00;;
3004;SDS011;1512;51.486;6.610;2023-05-20T23:08:33;10.00;;;7.97;;
3004;SDS011;1512;51.486;6.610;2023-05-20T23:12:41;8.30;;;6.83;;
3004;SDS011;1512;51.486;6.610;2023-05-20T23:16:50;11.13;;;8.43;;
3004;SDS011;1512;51.486;6.610;2023-05-20T23:20:59;11.60;;;7.93;;
3004;SDS011;1512;51.486;6.610;2023-05-20T23:25:08;10.73;;;7.43;;
3004;SDS011;1512;51.486;6.610;2023-05-20T23:29:17;9.03;;;6.60;;
3004;SDS011;1512;51.486;6.610;2023-05-20T23:33:27;8.80;;;7.20;;
3004;SDS011;1512;51.486;6.610;2023-05-20T23:37:36;9.83;;;6.80;;
3004;SDS011;1512;51.486;6.610;2023-05-20T23:41:46;10.60;;;7.60;;
3004;SDS011;1512;51.486;6.610;2023-05-20T23:45:55;10.07;;;7.33;;
3004;SDS011;1512;51.486;6.610;2023-05-20T23:50:04;7.23;;;6.23;;
3004;SDS011;1512;51.486;6.610;2023-05-20T23:54:14;10.17;;;7.50;;
3004;SDS011;1512;51.486;6.610;2023-05-20T23:58:23;8.57;;;7.17;;
